createdAt,value
2019-04-20T00:01:12.606Z,99892.26
2019-04-20T00:03:45.521Z,99894.20
2019-04-20T00:06:17.745Z,99882.17
2019-04-20T00:08:55.624Z,99883.70
2019-04-20T00:11:29.571Z,99883.10
2019-04-20T00:14:05.562Z,99885.42
2019-04-20T00:16:33.701Z,99882.14
2019-04-20T00:19:07.641Z,99882.14
2019-04-20T00:21:46.936Z,99883.23
2019-04-20T00:24:25.735Z,99883.23
2019-04-20T00:27:15.274Z,99887.12
2019-04-20T00:29:51.071Z,99880.54
2019-04-20T00:32:14.653Z,99878.95
2019-04-20T00:34:41.632Z,99878.67
2019-04-20T00:37:12.884Z,99882.39
2019-04-20T00:39:46.859Z,99876.91
2019-04-20T00:42:23.447Z,99883.02
2019-04-20T00:45:03.245Z,99879.98
2019-04-20T00:47:37.323Z,99876.55
2019-04-20T00:50:22.840Z,99874.98
2019-04-20T00:52:51.765Z,99873.75
2019-04-20T00:55:11.305Z,99872.78
2019-04-20T00:57:50.043Z,99871.87
2019-04-20T01:00:36.882Z,99871.87
2019-04-20T01:03:09.827Z,99852.55
2019-04-20T01:05:53.656Z,99852.55
2019-04-20T01:08:06.465Z,99872.00
2019-04-20T01:10:46.452Z,99872.70
2019-04-20T01:13:18.691Z,99873.95
2019-04-20T01:15:57.818Z,99872.30
2019-04-20T01:18:24.678Z,99884.06
2019-04-20T01:21:04.980Z,99878.95
2019-04-20T01:23:40.422Z,99885.91
2019-04-20T01:26:13.013Z,99883.12
2019-04-20T01:28:57.204Z,99884.02
2019-04-20T01:31:31.598Z,99884.07
2019-04-20T01:34:05.653Z,99885.06
2019-04-20T01:36:47.964Z,99888.05
2019-04-20T01:39:15.484Z,99887.45
2019-04-20T01:41:39.345Z,99880.52
2019-04-20T01:44:13.191Z,99885.65
2019-04-20T01:46:51.925Z,99895.23
2019-04-20T01:49:23.850Z,99883.20
2019-04-20T01:52:04.926Z,99889.13
2019-04-20T01:54:51.204Z,99883.38
2019-04-20T01:57:26.139Z,99891.81
2019-04-20T02:00:07.425Z,99892.49
2019-04-20T02:02:43.626Z,99894.79
2019-04-20T02:05:17.051Z,99889.86
2019-04-20T02:07:49.358Z,99896.73
2019-04-20T02:10:31.124Z,99875.02
2019-04-20T02:12:59.608Z,99875.02
2019-04-20T02:15:38.144Z,99892.80
2019-04-20T02:18:17.584Z,99877.05
2019-04-20T02:21:00.225Z,99877.05
2019-04-20T02:23:25.159Z,99898.45
2019-04-20T02:25:47.982Z,99894.64
2019-04-20T02:28:38.551Z,99894.64
2019-04-20T02:31:32.914Z,99889.22
2019-04-20T02:34:26.143Z,99889.22
2019-04-20T02:37:13.846Z,99886.92
2019-04-20T02:42:19.738Z,99885.48
2019-04-20T02:44:49.987Z,99891.77
2019-04-20T02:47:25.752Z,99896.06
2019-04-20T02:50:09.119Z,99894.92
2019-04-20T02:52:42.522Z,99875.83
2019-04-20T02:55:17.982Z,99875.83
2019-04-20T02:57:40.415Z,99893.27
2019-04-20T03:00:18.277Z,99890.81
2019-04-20T03:02:27.246Z,99889.16
2019-04-20T03:05:00.185Z,99891.98
2019-04-20T03:07:34.126Z,99877.71
2019-04-20T03:10:14.073Z,99877.71
2019-04-20T03:12:53.701Z,99899.23
2019-04-20T03:15:29.540Z,99887.42
2019-04-20T03:18:05.962Z,99897.78
2019-04-20T03:20:39.018Z,99894.00
2019-04-20T03:23:26.419Z,99894.52
2019-04-20T03:25:49.944Z,99891.36
2019-04-20T03:28:28.017Z,99893.02
2019-04-20T03:34:13.441Z,99897.96
2019-04-20T03:36:29.180Z,99896.49
2019-04-20T03:38:54.997Z,99899.48
2019-04-20T03:41:18.414Z,99894.53
2019-04-20T03:43:45.594Z,99894.53
2019-04-20T03:46:25.768Z,99891.72
2019-04-20T03:51:53.400Z,99876.77
2019-04-20T03:55:26.580Z,99899.63
2019-04-20T03:58:10.635Z,99894.86
2019-04-20T04:00:50.376Z,99898.16
2019-04-20T04:03:36.546Z,99889.25
2019-04-20T04:06:11.750Z,99875.10
2019-04-20T04:08:39.412Z,99875.10
2019-04-20T04:11:26.187Z,99899.61
2019-04-20T04:13:43.801Z,99899.61
2019-04-20T04:16:18.934Z,99899.11
2019-04-20T04:19:01.575Z,99893.69
2019-04-20T04:21:40.850Z,99896.64
2019-04-20T04:24:14.342Z,99894.00
2019-04-20T04:26:47.490Z,99897.95
2019-04-20T04:29:32.107Z,99899.27
2019-04-20T04:32:16.772Z,99895.64
2019-04-20T04:34:41.569Z,99901.57
2019-04-20T04:37:19.052Z,99903.38
2019-04-20T04:39:49.038Z,99903.52
2019-04-20T04:42:25.135Z,99902.53
2019-04-20T04:44:46.832Z,99907.31
2019-04-20T04:47:13.370Z,99907.31
2019-04-20T04:49:55.220Z,99916.34
2019-04-20T04:52:29.381Z,99922.61
2019-04-20T04:55:07.707Z,99914.04
2019-04-20T05:00:22.748Z,99922.28
2019-04-20T05:02:55.557Z,99922.78
2019-04-20T05:17:15.304Z,99928.08
2019-04-20T05:19:53.158Z,99930.88
2019-04-20T05:22:32.182Z,99929.57
2019-04-20T05:25:11.973Z,99929.57
2019-04-20T05:27:49.071Z,99933.52
2019-04-20T05:30:03.642Z,99919.71
2019-04-20T05:32:47.484Z,99930.56
2019-04-20T05:35:31.045Z,99921.35
2019-04-20T05:38:12.672Z,99927.94
2019-04-20T05:40:42.670Z,99926.95
2019-04-20T05:43:15.494Z,99922.00
2019-04-20T05:45:47.782Z,99923.14
2019-04-20T05:48:23.279Z,99925.92
2019-04-20T05:51:04.594Z,99926.75
2019-04-20T05:53:38.535Z,99927.05
2019-04-20T05:56:10.342Z,99930.19
2019-04-20T05:58:54.752Z,99926.52
2019-04-20T06:01:25.857Z,99933.76
2019-04-20T06:03:55.460Z,99932.56
2019-04-20T06:06:32.807Z,99930.73
2019-04-20T06:09:10.874Z,99933.48
2019-04-20T06:11:49.603Z,99927.36
2019-04-20T06:14:08.053Z,99927.36
2019-04-20T06:17:02.917Z,99940.32
2019-04-20T06:19:48.920Z,99932.84
2019-04-20T06:22:12.591Z,99942.33
2019-04-20T06:25:01.373Z,99939.11
2019-04-20T06:27:17.957Z,99939.63
2019-04-20T06:29:52.496Z,99939.07
2019-04-20T06:32:33.832Z,99937.97
2019-04-20T06:35:10.151Z,99939.22
2019-04-20T06:37:36.293Z,99939.07
2019-04-20T06:40:29.569Z,99939.07
2019-04-20T06:42:53.890Z,99942.55
2019-04-20T06:45:28.189Z,99942.55
2019-04-20T06:48:01.094Z,99946.75
2019-04-20T06:50:32.932Z,99942.93
2019-04-20T06:53:20.505Z,99942.93
2019-04-20T06:55:54.747Z,99947.97
2019-04-20T06:58:39.549Z,99943.72
2019-04-20T07:01:01.301Z,99943.72
2019-04-20T07:03:44.118Z,99947.11
2019-04-20T07:06:23.892Z,99949.58
2019-04-20T07:11:18.748Z,99942.61
2019-04-20T07:13:41.223Z,99939.64
2019-04-20T07:16:36.075Z,99945.67
2019-04-20T07:19:18.622Z,99941.72
2019-04-20T07:24:45.809Z,99943.02
2019-04-20T07:27:12.192Z,99942.48
2019-04-20T07:29:52.324Z,99935.37
2019-04-20T07:32:19.359Z,99938.84
2019-04-20T07:34:56.760Z,99938.84
2019-04-20T07:38:07.018Z,99934.16
2019-04-20T07:40:11.724Z,99929.77
2019-04-20T07:42:56.470Z,99918.80
2019-04-20T07:45:24.147Z,99918.80
2019-04-20T07:47:53.798Z,99936.84
2019-04-20T07:50:21.832Z,99932.34
2019-04-20T07:52:51.184Z,99932.34
2019-04-20T07:58:07.337Z,99930.42
2019-04-20T08:00:57.273Z,99930.57
2019-04-20T08:03:50.171Z,99920.01
2019-04-20T08:06:01.091Z,99920.01
2019-04-20T08:08:40.705Z,99921.79
2019-04-20T08:11:17.876Z,99923.44
2019-04-20T08:13:51.360Z,99923.44
2019-04-20T08:16:41.097Z,99926.53
2019-04-20T08:18:59.782Z,99903.00
2019-04-20T08:21:38.778Z,99903.00
2019-04-20T08:24:07.629Z,99917.57
2019-04-20T08:26:33.983Z,99911.75
2019-04-20T08:29:19.751Z,99915.16
2019-04-20T08:32:16.153Z,99918.24
2019-04-20T08:34:55.861Z,99912.47
2019-04-20T08:37:20.614Z,99915.88
2019-04-20T08:40:04.054Z,99911.72
2019-04-20T08:42:30.188Z,99909.71
2019-04-20T08:45:07.150Z,99909.71
2019-04-20T08:47:44.677Z,99910.19
2019-04-20T08:53:12.762Z,99898.64
2019-04-20T08:55:29.822Z,99902.61
2019-04-20T08:57:45.039Z,99892.39
2019-04-20T09:00:28.797Z,99892.39
2019-04-20T09:02:59.081Z,99899.63
2019-04-20T09:05:39.951Z,99890.05
2019-04-20T09:08:13.537Z,99889.25
2019-04-20T09:10:59.805Z,99890.42
2019-04-20T09:13:26.997Z,99892.84
2019-04-20T09:15:55.552Z,99893.33
2019-04-20T09:18:38.892Z,99891.91
2019-04-20T09:21:13.984Z,99892.34
2019-04-20T09:24:10.554Z,99889.00
2019-04-20T09:26:41.343Z,99884.65
2019-04-20T09:29:11.121Z,99874.67
2019-04-20T09:31:47.044Z,99874.67
2019-04-20T09:34:24.961Z,99882.95
2019-04-20T09:37:22.047Z,99872.59
2019-04-20T09:43:14.301Z,99867.53
2019-04-20T10:08:04.364Z,99852.77
2019-04-20T10:10:45.577Z,99843.81
2019-04-20T10:16:31.479Z,99846.12
2019-04-20T10:19:04.927Z,99841.83
2019-04-20T10:21:39.305Z,99828.95
2019-04-20T10:24:12.600Z,99830.02
2019-04-20T10:26:45.438Z,99830.02
2019-04-20T10:29:18.022Z,99829.56
2019-04-20T10:31:55.725Z,99831.27
2019-04-20T10:34:24.760Z,99832.34
2019-04-20T10:36:57.588Z,99792.91
2019-04-20T10:39:31.806Z,99792.91
2019-04-20T10:42:05.895Z,99819.36
2019-04-20T10:44:38.934Z,99823.98
2019-04-20T10:47:11.785Z,99813.94
2019-04-20T10:49:45.038Z,99816.41
2019-04-20T10:52:17.870Z,99818.79
2019-04-20T10:54:50.551Z,99815.67
2019-04-20T10:57:25.667Z,99814.30
2019-04-20T10:59:59.385Z,99806.75
2019-04-20T11:05:38.372Z,99803.27
2019-04-20T11:08:14.728Z,99805.19
2019-04-20T11:10:59.239Z,99812.70
2019-04-20T11:13:21.578Z,99808.88
2019-04-20T11:15:54.550Z,99801.60
2019-04-20T11:18:27.420Z,99796.59
2019-04-20T11:20:59.914Z,99777.45
2019-04-20T11:23:32.354Z,99777.45
2019-04-20T11:26:06.299Z,99781.30
2019-04-20T11:28:40.011Z,99781.30
2019-04-20T11:31:16.566Z,99790.27
2019-04-20T11:33:49.995Z,99790.66
2019-04-20T11:36:23.233Z,99746.16
2019-04-20T11:38:56.698Z,99769.79
2019-04-20T11:41:32.715Z,99769.79
2019-04-20T11:44:05.551Z,99775.50
2019-04-20T11:46:38.790Z,99746.59
2019-04-20T11:49:11.420Z,99762.59
2019-04-20T11:51:45.700Z,99765.68
2019-04-20T11:54:18.641Z,99766.44
2019-04-20T11:56:51.427Z,99769.76
2019-04-20T11:59:25.277Z,99765.03
2019-04-20T12:02:02.484Z,99759.09
2019-04-20T12:04:42.244Z,99746.88
2019-04-20T12:07:09.292Z,99746.88
2019-04-20T12:09:42.133Z,99741.77
2019-04-20T12:12:27.711Z,99741.77
2019-04-20T12:14:50.704Z,99740.35
2019-04-20T12:17:23.743Z,99739.37
2019-04-20T12:19:57.689Z,99739.00
2019-04-20T12:22:32.407Z,99737.72
2019-04-20T12:25:05.845Z,99733.45
2019-04-20T12:27:41.943Z,99728.30
2019-04-20T12:30:19.632Z,99721.98
2019-04-20T12:32:55.484Z,99730.91
2019-04-20T12:35:27.480Z,99735.84
2019-04-20T12:40:35.367Z,99728.04
2019-04-20T12:43:08.985Z,99728.04
2019-04-20T12:45:42.126Z,99723.23
2019-04-20T12:48:15.777Z,99729.19
2019-04-20T12:50:49.799Z,99714.97
2019-04-20T12:53:24.564Z,99711.57
2019-04-20T12:55:57.343Z,99703.56
2019-04-20T12:58:30.589Z,99711.80
2019-04-20T13:01:04.515Z,99711.80
2019-04-20T13:03:39.234Z,99710.41
2019-04-20T13:06:12.179Z,99709.03
2019-04-20T13:08:51.853Z,99683.13
2019-04-20T13:11:24.757Z,99695.45
2019-04-20T13:14:26.319Z,99695.45
2019-04-20T13:16:59.433Z,99695.72
2019-04-20T13:19:33.290Z,99684.96
2019-04-20T13:22:07.736Z,99696.80
2019-04-20T13:24:41.019Z,99689.96
2019-04-20T13:27:14.372Z,99681.00
2019-04-20T13:29:50.512Z,99681.00
2019-04-20T13:32:21.591Z,99674.56
2019-04-20T13:34:54.314Z,99671.61
2019-04-20T13:37:26.758Z,99646.53
2019-04-20T13:40:00.758Z,99646.53
2019-04-20T13:42:35.178Z,99668.87
2019-04-20T13:45:10.764Z,99660.47
2019-04-20T13:47:43.549Z,99655.14
2019-04-20T13:50:20.406Z,99660.93
2019-04-20T13:52:53.356Z,99652.05
2019-04-20T13:55:27.318Z,99652.82
2019-04-20T13:58:04.877Z,99651.21
2019-04-20T14:00:58.967Z,99635.33
2019-04-20T14:03:34.585Z,99640.88
2019-04-20T14:06:08.878Z,99640.88
2019-04-20T14:08:43.318Z,99587.48
2019-04-20T14:11:15.728Z,99624.61
2019-04-20T14:13:54.613Z,99624.61
2019-04-20T14:16:23.191Z,99636.64
2019-04-20T14:18:55.366Z,99627.41
2019-04-20T14:21:27.964Z,99625.46
2019-04-20T14:24:01.254Z,99625.46
2019-04-20T14:26:36.177Z,99621.89
2019-04-20T14:29:09.031Z,99623.87
2019-04-20T14:31:45.876Z,99621.28
2019-04-20T14:34:18.671Z,99618.44
2019-04-20T14:36:52.974Z,99609.44
2019-04-20T14:39:24.612Z,99603.39
2019-04-20T14:41:56.327Z,99601.83
2019-04-20T14:44:29.931Z,99600.88
2019-04-20T14:47:03.653Z,99589.40
2019-04-20T14:49:36.805Z,99587.38
2019-04-20T14:52:09.401Z,99595.89
2019-04-20T14:54:41.831Z,99592.58
2019-04-20T14:57:14.313Z,99594.45
2019-04-20T14:59:57.647Z,99562.55
2019-04-20T15:02:32.120Z,99562.55
2019-04-20T15:05:07.319Z,99585.90
2019-04-20T15:07:40.745Z,99587.63
2019-04-20T15:10:14.893Z,99587.34
2019-04-20T15:12:54.619Z,99583.64
2019-04-20T15:15:22.910Z,99576.09
2019-04-20T15:17:57.589Z,99576.09
2019-04-20T15:20:32.925Z,99577.61
2019-04-20T15:23:07.680Z,99573.19
2019-04-20T15:25:40.298Z,99570.16
2019-04-20T15:28:12.599Z,99547.47
2019-04-20T15:30:45.291Z,99547.47
2019-04-20T15:33:18.963Z,99557.23
2019-04-20T15:35:52.484Z,99557.23
2019-04-20T15:38:25.049Z,99560.16
2019-04-20T15:40:59.485Z,99554.05
2019-04-20T15:43:33.164Z,99553.39
2019-04-20T15:46:05.725Z,99540.91
2019-04-20T15:48:39.754Z,99546.34
2019-04-20T15:51:12.346Z,99547.16
2019-04-20T15:53:44.719Z,99545.44
2019-04-20T15:56:18.540Z,99545.44
2019-04-20T15:58:52.523Z,99545.39
2019-04-20T16:01:28.319Z,99542.23
2019-04-20T16:04:03.647Z,99550.69
2019-04-20T16:06:37.412Z,99536.33
2019-04-20T16:09:12.305Z,99528.80
2019-04-20T16:11:46.689Z,99528.80
2019-04-20T16:14:19.664Z,99526.57
2019-04-20T16:16:52.735Z,99523.55
2019-04-20T16:19:34.955Z,99525.56
2019-04-20T16:22:03.621Z,99500.73
2019-04-20T16:24:37.866Z,99500.73
2019-04-20T16:27:18.283Z,99512.34
2019-04-20T16:31:48.164Z,99506.55
2019-04-20T16:34:21.260Z,99516.47
2019-04-20T16:36:56.072Z,99506.48
2019-04-20T16:39:28.314Z,99506.48
2019-04-20T16:42:02.381Z,99504.66
2019-04-20T16:44:35.553Z,99504.41
2019-04-20T16:47:08.291Z,99502.91
2019-04-20T16:49:41.132Z,99496.04
2019-04-20T16:52:14.919Z,99496.04
2019-04-20T16:54:47.957Z,99504.03
2019-04-20T16:57:21.465Z,99493.66
2019-04-20T16:59:56.454Z,99498.55
2019-04-20T17:02:28.428Z,99494.17
2019-04-20T17:05:01.337Z,99491.55
2019-04-20T17:07:40.140Z,99486.19
2019-04-20T17:10:16.155Z,99490.98
2019-04-20T17:12:48.718Z,99488.21
2019-04-20T17:15:21.590Z,99482.45
2019-04-20T17:17:56.714Z,99487.31
2019-04-20T17:20:28.876Z,99485.55
2019-04-20T17:23:03.818Z,99490.34
2019-04-20T17:25:35.296Z,99488.28
2019-04-20T17:28:25.072Z,99486.19
2019-04-20T17:31:11.717Z,99489.87
2019-04-20T17:33:58.660Z,99491.29
2019-04-20T17:36:28.923Z,99491.44
2019-04-20T17:39:02.240Z,99490.44
2019-04-20T17:41:59.453Z,99492.05
2019-04-20T17:44:28.590Z,99493.62
2019-04-20T17:46:58.249Z,99494.79
2019-04-20T17:49:31.417Z,99489.99
2019-04-20T17:52:22.141Z,99493.59
2019-04-20T17:54:33.490Z,99491.52
2019-04-20T17:57:09.088Z,99495.57
2019-04-20T17:59:44.886Z,99501.00
2019-04-20T18:02:40.835Z,99497.56
2019-04-20T18:05:39.504Z,99506.98
2019-04-20T18:08:16.515Z,99499.70
2019-04-20T18:10:41.859Z,99502.12
2019-04-20T18:13:11.552Z,99504.80
2019-04-20T18:15:52.643Z,99505.59
2019-04-20T18:18:38.969Z,99505.84
2019-04-20T18:21:03.452Z,99508.23
2019-04-20T18:23:41.224Z,99510.02
2019-04-20T18:26:31.785Z,99510.95
2019-04-20T18:29:10.774Z,99511.16
2019-04-20T18:31:33.842Z,99485.05
2019-04-20T18:37:34.308Z,99514.57
2019-04-20T18:54:41.990Z,99527.80
2019-04-20T18:57:17.972Z,99534.45
2019-04-20T18:59:52.112Z,99536.98
2019-04-20T19:02:26.960Z,99542.84
2019-04-20T19:04:58.297Z,99548.12
2019-04-20T19:07:34.846Z,99545.22
2019-04-20T19:10:14.509Z,99543.36
2019-04-20T19:12:56.716Z,99546.00
2019-04-20T19:15:51.113Z,99543.41
2019-04-20T19:18:26.005Z,99542.63
2019-04-20T19:20:50.639Z,99542.63
2019-04-20T19:23:25.027Z,99550.39
2019-04-20T19:26:04.404Z,99545.59
2019-04-20T19:28:40.140Z,99548.73
2019-04-20T19:31:27.877Z,99551.23
2019-04-20T19:34:07.180Z,99549.10
2019-04-20T19:36:28.658Z,99550.66
2019-04-20T19:39:11.033Z,99549.83
2019-04-20T19:43:28.297Z,99546.08
2019-04-20T19:46:34.919Z,99542.70
2019-04-20T19:48:39.587Z,99553.48
2019-04-20T19:51:25.640Z,99558.54
2019-04-20T19:54:02.727Z,99556.16
2019-04-20T19:56:33.786Z,99553.31
2019-04-20T19:59:05.141Z,99557.45
2019-04-20T20:05:50.903Z,99553.41
2019-04-20T20:08:25.958Z,99553.21
2019-04-20T20:12:55.314Z,99558.73
2019-04-20T20:15:29.655Z,99554.67
2019-04-20T20:18:15.598Z,99563.42
2019-04-20T20:20:52.842Z,99560.61
2019-04-20T20:23:10.056Z,99557.88
2019-04-20T20:25:46.441Z,99556.09
2019-04-20T20:28:27.101Z,99562.97
2019-04-20T20:31:05.063Z,99560.02
2019-04-20T20:33:44.010Z,99559.92
2019-04-20T20:36:05.559Z,99559.91
2019-04-20T20:38:39.794Z,99560.06
2019-04-20T20:41:22.946Z,99556.43
2019-04-20T20:43:56.521Z,99567.51
2019-04-20T20:46:30.647Z,99570.59
2019-04-20T20:49:09.566Z,99572.41
2019-04-20T20:51:48.758Z,99565.04
2019-04-20T20:54:24.325Z,99565.04
2019-04-20T20:56:49.934Z,99567.57
2019-04-20T20:59:30.275Z,99539.06
2019-04-20T21:02:00.962Z,99539.06
2019-04-20T21:04:27.827Z,99571.43
2019-04-20T21:07:02.565Z,99563.56
2019-04-20T21:09:35.532Z,99565.23
2019-04-20T21:12:14.061Z,99570.80
2019-04-20T21:14:44.246Z,99565.13
2019-04-20T21:17:21.104Z,99532.91
2019-04-20T21:20:08.496Z,99532.91
2019-04-20T21:22:44.631Z,99574.76
2019-04-20T21:25:01.643Z,99565.51
2019-04-20T21:27:37.314Z,99564.01
2019-04-20T21:30:17.123Z,99564.34
2019-04-20T21:32:49.129Z,99564.34
2019-04-20T21:35:21.851Z,99564.98
2019-04-20T21:38:00.401Z,99563.15
2019-04-20T21:40:36.151Z,99560.21
2019-04-20T21:43:07.480Z,99563.38
2019-04-20T21:45:47.895Z,99553.80
2019-04-20T21:48:35.072Z,99560.33
2019-04-20T21:51:08.620Z,99550.85
2019-04-20T21:53:29.568Z,99545.44
2019-04-20T21:55:57.651Z,99548.22
2019-04-20T21:58:35.271Z,99540.97
2019-04-20T22:01:16.374Z,99541.38
2019-04-20T22:03:44.756Z,99536.77
2019-04-20T22:06:18.332Z,99540.88
2019-04-20T22:08:57.076Z,99538.32
2019-04-20T22:11:25.928Z,99534.23
2019-04-20T22:14:02.202Z,99534.72
2019-04-20T22:16:40.975Z,99538.81
2019-04-20T22:19:23.933Z,99532.78
2019-04-20T22:21:58.762Z,99532.05
2019-04-20T22:24:40.259Z,99531.12
2019-04-20T22:27:06.345Z,99527.86
2019-04-20T22:29:30.187Z,99526.81
2019-04-20T22:32:11.548Z,99528.16
2019-04-20T22:34:39.775Z,99527.41
2019-04-20T22:37:15.210Z,99526.89
2019-04-20T22:39:54.091Z,99533.34
2019-04-20T22:42:23.585Z,99534.99
2019-04-20T22:45:01.932Z,99535.57
2019-04-20T22:47:36.083Z,99536.78
2019-04-20T22:50:25.467Z,99527.55
2019-04-20T22:52:55.667Z,99527.55
2019-04-20T22:55:45.559Z,99528.48
2019-04-20T22:58:03.266Z,99523.92
2019-04-20T23:00:40.710Z,99523.92
2019-04-20T23:03:05.460Z,99520.62
2019-04-20T23:05:38.637Z,99520.47
2019-04-20T23:08:12.820Z,99519.02
2019-04-20T23:10:47.997Z,99525.59
2019-04-20T23:14:04.897Z,99515.12
2019-04-20T23:16:42.946Z,99515.12
2019-04-20T23:19:12.041Z,99522.91
2019-04-20T23:21:52.353Z,99522.91
2019-04-20T23:24:23.601Z,99524.31
2019-04-20T23:26:57.358Z,99523.97
2019-04-20T23:29:35.707Z,99519.77
2019-04-20T23:32:09.527Z,99525.11
2019-04-20T23:34:39.162Z,99513.80
2019-04-20T23:37:20.533Z,99519.97
2019-04-20T23:39:50.944Z,99511.92
2019-04-20T23:42:28.033Z,99516.88
2019-04-20T23:45:03.750Z,99513.36
2019-04-20T23:47:45.700Z,99505.70
2019-04-20T23:50:35.462Z,99505.70
2019-04-20T23:53:10.170Z,99504.28
2019-04-20T23:55:23.749Z,99502.44
2019-04-20T23:58:01.723Z,99507.03
